Time;durP1;ratioP1;P1;durP2;ratioP2;P2;SDS_P1;SDS_P2;PMS_P1;PMS_P2;Temp;Humidity;BMP_temperature;BMP_pressure;BME280_temperature;BME280_humidity;BME280_pressure;Samples;Min_cycle;Max_cycle;Signal;HPM_P1;HPM_P2
2022/03/09 00:00:18;;;;;;;6.43;3.30;;;8.60;69.20;;;;;;5056580;28;20394;-61
2022/03/09 00:02:44;;;;;;;8.48;3.00;;;8.60;69.10;;;;;;5054792;28;20025;-61
2022/03/09 00:05:10;;;;;;;5.50;2.65;;;8.60;69.40;;;;;;5059157;28;20034;-62
2022/03/09 00:07:36;;;;;;;6.20;3.58;;;8.60;69.30;;;;;;5053176;28;20033;-61
2022/03/09 00:10:05;;;;;;;7.43;3.20;;;8.60;69.20;;;;;;5052805;28;20029;-61
2022/03/09 00:12:30;;;;;;;10.25;3.33;;;8.50;69.10;;;;;;5033235;28;20025;-61
2022/03/09 00:14:56;;;;;;;7.57;3.10;;;8.60;69.30;;;;;;5054053;28;20432;-62
2022/03/09 00:17:22;;;;;;;11.13;3.92;;;8.60;69.20;;;;;;5052026;28;20021;-61
2022/03/09 00:19:48;;;;;;;6.75;2.83;;;8.60;69.40;;;;;;5043098;28;20075;-61
2022/03/09 00:22:14;;;;;;;6.65;3.28;;;8.50;69.10;;;;;;5033878;28;20041;-61
2022/03/09 00:24:40;;;;;;;6.18;2.78;;;8.50;69.30;;;;;;5032306;28;20032;-61
2022/03/09 00:27:06;;;;;;;8.68;3.47;;;8.50;69.20;;;;;;5031445;28;20025;-61
2022/03/09 00:29:33;;;;;;;9.52;3.50;;;8.60;69.30;;;;;;5035843;28;20107;-61
2022/03/09 00:31:59;;;;;;;5.05;2.58;;;8.60;69.20;;;;;;5033612;28;20021;-62
2022/03/09 00:34:25;;;;;;;7.20;3.10;;;8.50;69.30;;;;;;5051390;28;20482;-61
2022/03/09 00:36:50;;;;;;;7.63;3.58;;;8.50;69.30;;;;;;5033560;28;20120;-61
2022/03/09 00:39:16;;;;;;;5.50;2.55;;;8.50;69.20;;;;;;5051551;28;20473;-61
2022/03/09 00:41:42;;;;;;;4.97;3.05;;;8.50;69.30;;;;;;5032659;28;20024;-61
2022/03/09 00:44:08;;;;;;;8.27;3.35;;;8.60;69.10;;;;;;5066521;28;20409;-61
2022/03/09 00:46:34;;;;;;;7.70;2.85;;;8.50;69.00;;;;;;5051677;28;20100;-61
2022/03/09 00:49:01;;;;;;;10.88;4.13;;;8.50;69.10;;;;;;5052342;28;20120;-61
2022/03/09 00:51:27;;;;;;;7.28;3.40;;;8.60;69.20;;;;;;5035166;28;20549;-61
2022/03/09 00:53:53;;;;;;;8.27;2.97;;;8.50;69.00;;;;;;5053371;28;20063;-62
2022/03/09 00:56:19;;;;;;;8.90;3.05;;;8.50;69.10;;;;;;5052835;28;20048;-61
2022/03/09 00:58:45;;;;;;;6.07;2.58;;;8.50;69.00;;;;;;5051838;28;20025;-61
2022/03/09 01:01:11;;;;;;;6.78;3.08;;;8.50;69.10;;;;;;5048383;28;20037;-61
2022/03/09 01:03:37;;;;;;;8.65;3.20;;;8.50;69.00;;;;;;5035366;28;20017;-61
2022/03/09 01:06:04;;;;;;;5.65;3.45;;;8.50;69.10;;;;;;5033554;28;20524;-61
2022/03/09 01:08:29;;;;;;;8.80;3.38;;;8.50;69.10;;;;;;5051309;28;20045;-61
2022/03/09 01:10:55;;;;;;;7.65;3.97;;;8.50;69.10;;;;;;5033508;28;20029;-62
2022/03/09 01:13:21;;;;;;;6.28;3.85;;;8.50;69.20;;;;;;5050619;28;20021;-61
2022/03/09 01:15:47;;;;;;;9.98;3.47;;;8.50;69.10;;;;;;5049377;28;20041;-61
2022/03/09 01:18:13;;;;;;;7.75;2.95;;;8.50;69.00;;;;;;5051512;28;20090;-61
2022/03/09 01:20:39;;;;;;;6.93;3.22;;;8.50;69.00;;;;;;5051291;28;20405;-62
2022/03/09 01:23:05;;;;;;;9.48;3.05;;;8.50;68.90;;;;;;5038763;28;20024;-61
2022/03/09 01:25:30;;;;;;;14.55;3.42;;;8.50;69.00;;;;;;5051434;28;20052;-61
2022/03/09 01:27:56;;;;;;;8.25;3.50;;;8.50;69.70;;;;;;5050721;28;20025;-61
2022/03/09 01:30:22;;;;;;;7.80;3.88;;;8.50;69.00;;;;;;5056677;28;20035;-61
2022/03/09 01:32:48;;;;;;;7.43;3.70;;;8.50;68.80;;;;;;5051399;28;20155;-61
2022/03/09 01:35:14;;;;;;;6.80;3.03;;;8.40;68.80;;;;;;5051587;28;20032;-61
2022/03/09 01:37:40;;;;;;;6.40;3.72;;;8.40;68.90;;;;;;5050994;28;20115;-61
2022/03/09 01:40:06;;;;;;;6.75;2.90;;;8.40;68.80;;;;;;5051122;28;20151;-61
2022/03/09 01:42:32;;;;;;;10.90;3.30;;;8.40;68.80;;;;;;5032268;28;20147;-61
2022/03/09 01:45:03;;;;;;;10.07;3.33;;;8.40;68.90;;;;;;5031693;28;20022;-61
2022/03/09 01:47:28;;;;;;;7.82;3.42;;;8.40;68.70;;;;;;5028370;28;20029;-61
2022/03/09 01:49:54;;;;;;;8.18;3.42;;;8.40;68.70;;;;;;5049252;28;20040;-62
2022/03/09 01:52:19;;;;;;;6.95;3.05;;;8.40;68.70;;;;;;5049549;28;20056;-61
2022/03/09 01:54:45;;;;;;;7.40;2.90;;;8.40;68.70;;;;;;5050519;28;20028;-61
2022/03/09 01:57:11;;;;;;;5.72;3.75;;;8.40;68.80;;;;;;5050663;28;20082;-61
2022/03/09 01:59:36;;;;;;;4.47;3.03;;;8.40;68.80;;;;;;5049761;28;20087;-61
2022/03/09 02:02:02;;;;;;;8.40;2.78;;;8.40;68.70;;;;;;5041235;28;20032;-61
2022/03/09 02:41:33;;;;;;;5.22;3.00;;;8.40;69.30;;;;;;5032936;28;20052;-61
2022/03/09 02:44:03;;;;;;;5.60;2.95;;;8.30;69.30;;;;;;5049650;28;20025;-61
2022/03/09 02:46:29;;;;;;;6.10;3.13;;;8.30;69.10;;;;;;5043642;28;20044;-61
2022/03/09 02:48:55;;;;;;;6.22;2.72;;;8.30;69.20;;;;;;5029295;28;20028;-61
2022/03/09 02:51:20;;;;;;;5.43;2.92;;;8.40;69.10;;;;;;5029770;28;20036;-61
2022/03/09 02:53:48;;;;;;;7.50;3.78;;;8.30;69.10;;;;;;5012522;28;20326;-61
2022/03/09 02:56:15;;;;;;;6.15;3.20;;;8.40;69.00;;;;;;5013223;28;20494;-61
2022/03/09 02:58:41;;;;;;;6.57;3.20;;;8.30;69.00;;;;;;5020936;28;20032;-61
2022/03/09 03:01:07;;;;;;;6.53;3.50;;;8.40;69.00;;;;;;5049523;28;20060;-61
2022/03/09 03:03:33;;;;;;;7.07;3.53;;;8.30;68.90;;;;;;5052078;28;20055;-61
2022/03/09 03:05:59;;;;;;;8.93;2.95;;;8.30;68.90;;;;;;5069013;28;20414;-61
2022/03/09 03:08:25;;;;;;;6.75;3.90;;;8.30;68.90;;;;;;5069591;28;20485;-61
2022/03/09 03:10:50;;;;;;;6.43;3.30;;;8.30;68.70;;;;;;5061027;28;20049;-61
2022/03/09 03:13:16;;;;;;;6.43;3.58;;;8.30;68.70;;;;;;5012972;28;20021;-61
2022/03/09 03:15:42;;;;;;;7.88;3.17;;;8.30;68.80;;;;;;5027785;28;20029;-61
2022/03/09 03:18:07;;;;;;;7.97;2.97;;;8.30;68.70;;;;;;5040769;28;20170;-62
2022/03/09 03:20:34;;;;;;;4.43;2.95;;;8.30;68.70;;;;;;5047726;28;20032;-61
2022/03/09 03:22:59;;;;;;;8.75;3.50;;;8.40;68.60;;;;;;5047604;28;20075;-61
2022/03/09 03:25:25;;;;;;;9.95;3.40;;;8.30;68.80;;;;;;5048675;28;20029;-61
2022/03/09 03:27:51;;;;;;;6.65;3.45;;;8.30;68.80;;;;;;5031142;28;20040;-62
2022/03/09 03:30:16;;;;;;;6.72;3.20;;;8.30;68.70;;;;;;5049136;28;20235;-61
2022/03/09 03:32:45;;;;;;;7.30;3.47;;;8.30;68.70;;;;;;5047560;28;20132;-62
2022/03/09 03:35:10;;;;;;;6.75;3.60;;;8.30;68.80;;;;;;5040937;28;20124;-61
2022/03/09 03:37:36;;;;;;;6.72;3.22;;;8.30;68.70;;;;;;5052760;28;20112;-61
2022/03/09 03:40:03;;;;;;;6.10;3.50;;;8.40;68.70;;;;;;5048012;28;20181;-62
2022/03/09 03:42:29;;;;;;;5.22;2.70;;;8.30;68.70;;;;;;5045039;28;20478;-62
2022/03/09 03:44:57;;;;;;;7.18;3.17;;;8.30;68.60;;;;;;5031245;28;20033;-62
2022/03/09 03:47:23;;;;;;;8.55;3.38;;;8.30;68.50;;;;;;5035947;28;20477;-61
2022/03/09 03:49:49;;;;;;;9.10;3.58;;;8.30;68.70;;;;;;5037320;28;20033;-61
2022/03/09 03:52:15;;;;;;;6.82;3.75;;;8.30;68.70;;;;;;5026433;28;20037;-61
2022/03/09 03:54:41;;;;;;;9.00;3.67;;;8.30;68.70;;;;;;5029338;28;20048;-61
2022/03/09 03:57:09;;;;;;;6.10;3.30;;;8.30;68.70;;;;;;5028392;28;20021;-62
2022/03/09 03:59:34;;;;;;;10.38;3.35;;;8.30;68.60;;;;;;5031498;28;20026;-61
2022/03/09 04:02:00;;;;;;;6.80;3.63;;;8.20;68.60;;;;;;5031277;28;20029;-62
2022/03/09 04:04:26;;;;;;;8.32;3.70;;;8.30;68.70;;;;;;5030566;28;20136;-62
2022/03/09 04:06:54;;;;;;;10.32;3.75;;;8.20;68.40;;;;;;5030722;28;20029;-62
2022/03/09 04:09:20;;;;;;;6.65;3.78;;;8.30;68.70;;;;;;5031478;28;20044;-61
2022/03/09 04:11:45;;;;;;;9.05;3.60;;;8.20;68.70;;;;;;5049461;28;20037;-61
2022/03/09 04:14:11;;;;;;;7.90;3.33;;;8.20;68.60;;;;;;5034861;28;20067;-61
2022/03/09 04:16:37;;;;;;;10.88;4.30;;;8.20;68.50;;;;;;5032115;28;20429;-62
2022/03/09 04:19:02;;;;;;;7.15;3.20;;;8.20;68.50;;;;;;5031381;28;20133;-62
2022/03/09 04:21:28;;;;;;;10.02;3.65;;;8.20;68.50;;;;;;5037965;28;20088;-61
2022/03/09 04:23:54;;;;;;;8.57;3.60;;;8.20;68.60;;;;;;5030984;28;20431;-62
2022/03/09 04:26:20;;;;;;;9.38;3.83;;;8.20;68.50;;;;;;5015025;28;20025;-61
2022/03/09 04:28:45;;;;;;;12.70;3.70;;;8.20;68.60;;;;;;5060383;28;20025;-62
2022/03/09 04:31:11;;;;;;;10.23;3.88;;;8.20;68.50;;;;;;5033396;28;20584;-62
2022/03/09 04:33:37;;;;;;;7.78;3.25;;;8.20;68.50;;;;;;5034029;28;20519;-62
2022/03/09 04:36:05;;;;;;;6.75;3.83;;;8.20;68.30;;;;;;5052046;28;20326;-62
2022/03/09 04:38:30;;;;;;;9.88;4.40;;;8.20;68.40;;;;;;5033002;28;20374;-62
2022/03/09 04:40:56;;;;;;;10.02;4.68;;;8.20;68.40;;;;;;5043938;28;20079;-62
2022/03/09 04:43:22;;;;;;;8.70;4.07;;;8.20;68.60;;;;;;5054221;28;20025;-63
2022/03/09 04:45:48;;;;;;;6.85;3.35;;;8.20;68.60;;;;;;5045604;28;20021;-62
2022/03/09 04:48:13;;;;;;;10.73;4.40;;;8.20;68.50;;;;;;5042534;28;20080;-61
2022/03/09 04:50:42;;;;;;;10.82;3.42;;;8.20;68.70;;;;;;5035655;28;20136;-61
2022/03/09 04:53:07;;;;;;;7.13;3.63;;;8.20;69.30;;;;;;5014021;28;20755;-62
2022/03/09 04:55:33;;;;;;;8.32;3.40;;;8.20;68.70;;;;;;5032032;28;20029;-62
2022/03/09 04:57:58;;;;;;;6.72;2.95;;;8.20;68.50;;;;;;5052534;28;20056;-61
2022/03/09 05:00:25;;;;;;;15.68;4.40;;;8.20;68.50;;;;;;5052023;28;20648;-62
2022/03/09 05:05:55;;;;;;;11.63;3.28;;;8.20;68.60;;;;;;5028241;22;20100;-65
2022/03/09 05:08:21;;;;;;;6.25;3.78;;;8.20;68.60;;;;;;5009135;28;20041;-62
2022/03/09 05:10:47;;;;;;;9.05;3.78;;;8.20;68.60;;;;;;5010849;28;20033;-63
2022/03/09 05:13:14;;;;;;;14.77;3.35;;;8.20;68.60;;;;;;5008499;28;20124;-62
2022/03/09 05:15:40;;;;;;;11.43;4.40;;;8.20;68.40;;;;;;5008387;28;20026;-63
2022/03/09 05:18:05;;;;;;;6.20;3.70;;;8.20;68.40;;;;;;5001745;28;20501;-62
2022/03/09 05:20:31;;;;;;;7.47;3.58;;;8.20;68.40;;;;;;5000268;28;20037;-62
2022/03/09 05:22:57;;;;;;;8.48;3.40;;;8.20;68.30;;;;;;5009392;28;20057;-63
2022/03/09 05:25:22;;;;;;;11.63;4.00;;;8.20;68.40;;;;;;5011711;28;20065;-63
2022/03/09 05:27:48;;;;;;;7.55;3.28;;;8.20;68.40;;;;;;5010567;28;20038;-62
2022/03/09 05:30:14;;;;;;;9.73;3.28;;;8.20;68.40;;;;;;5011375;28;20034;-62
2022/03/09 05:32:43;;;;;;;11.48;4.40;;;8.20;68.50;;;;;;5011130;28;20053;-62
2022/03/09 05:35:09;;;;;;;12.65;4.22;;;8.20;68.40;;;;;;5010886;28;20085;-62
2022/03/09 05:37:43;;;;;;;8.60;3.63;;;8.20;68.30;;;;;;5011445;28;20065;-62
2022/03/09 05:40:09;;;;;;;7.40;3.58;;;8.20;68.20;;;;;;5008431;28;20022;-63
2022/03/09 05:42:35;;;;;;;10.10;4.47;;;8.20;68.10;;;;;;5010039;28;20040;-63
2022/03/09 05:45:02;;;;;;;9.65;3.92;;;8.20;67.10;;;;;;5011212;28;20088;-63
2022/03/09 05:47:28;;;;;;;11.18;4.50;;;8.10;67.40;;;;;;5010904;28;20044;-63
2022/03/09 05:49:54;;;;;;;11.48;4.20;;;8.10;67.50;;;;;;5008148;28;20337;-63
2022/03/09 05:52:19;;;;;;;12.77;4.43;;;8.10;67.40;;;;;;5006095;28;20080;-63
2022/03/09 05:54:45;;;;;;;11.27;4.38;;;8.20;67.50;;;;;;4991221;28;20099;-63
2022/03/09 05:57:18;;;;;;;7.22;3.38;;;8.10;67.50;;;;;;4996544;28;20113;-63
2022/03/09 05:59:43;;;;;;;18.27;4.93;;;8.10;67.60;;;;;;5007136;28;20026;-63
2022/03/09 06:02:09;;;;;;;10.18;3.88;;;8.10;67.60;;;;;;5002437;28;20075;-65
2022/03/09 06:04:35;;;;;;;9.38;4.18;;;8.10;67.60;;;;;;4989084;28;20181;-65
2022/03/09 06:07:04;;;;;;;11.75;4.82;;;8.10;67.70;;;;;;4988229;28;20018;-63
2022/03/09 06:09:30;;;;;;;11.45;4.93;;;8.20;67.60;;;;;;4990526;28;20176;-63
2022/03/09 06:11:56;;;;;;;10.02;4.15;;;8.20;67.60;;;;;;5006655;28;20493;-63
2022/03/09 06:14:21;;;;;;;8.32;3.88;;;8.20;67.80;;;;;;5008545;28;20025;-63
2022/03/09 06:16:47;;;;;;;10.85;4.65;;;8.20;67.70;;;;;;5008615;28;20113;-63
2022/03/09 06:19:14;;;;;;;11.88;5.30;;;8.20;67.70;;;;;;5008287;28;20030;-63
2022/03/09 06:21:40;;;;;;;17.80;4.43;;;8.10;67.60;;;;;;5006231;28;20108;-63
2022/03/09 06:24:06;;;;;;;12.02;4.28;;;8.10;67.70;;;;;;5007837;28;20066;-63
2022/03/09 06:26:32;;;;;;;10.00;4.65;;;8.10;67.70;;;;;;5008761;28;20026;-63
2022/03/09 06:28:58;;;;;;;9.88;4.70;;;8.10;67.90;;;;;;4990922;28;20033;-64
2022/03/09 06:31:23;;;;;;;8.40;4.05;;;8.10;67.70;;;;;;5007931;28;20231;-63
2022/03/09 06:33:49;;;;;;;11.20;3.83;;;8.20;67.90;;;;;;5008509;28;20471;-63
2022/03/09 06:36:16;;;;;;;8.43;4.07;;;8.10;67.70;;;;;;5006804;28;20022;-64
2022/03/09 06:38:41;;;;;;;10.73;3.83;;;8.20;67.70;;;;;;5008042;28;20037;-63
2022/03/09 06:41:07;;;;;;;8.75;3.67;;;8.20;67.70;;;;;;5006081;28;20742;-63
2022/03/09 06:43:33;;;;;;;9.05;4.53;;;8.10;67.70;;;;;;5007269;28;20018;-62
2022/03/09 06:45:59;;;;;;;12.70;4.63;;;8.20;67.80;;;;;;5009473;28;20490;-63
2022/03/09 06:48:24;;;;;;;8.18;3.60;;;8.20;67.50;;;;;;4989092;28;20303;-62
2022/03/09 06:50:50;;;;;;;12.18;4.70;;;8.40;67.10;;;;;;4992268;28;20549;-62
2022/03/09 06:53:16;;;;;;;11.43;4.13;;;8.50;66.60;;;;;;5009045;28;20018;-62
2022/03/09 06:55:41;;;;;;;5.72;3.65;;;8.40;66.90;;;;;;5009650;28;20096;-62
2022/03/09 06:58:07;;;;;;;9.35;4.22;;;8.50;66.70;;;;;;5008716;28;20025;-63
2022/03/09 07:00:33;;;;;;;13.05;4.05;;;8.50;66.50;;;;;;5005540;28;20494;-62
2022/03/09 07:03:02;;;;;;;13.95;4.00;;;8.50;66.30;;;;;;5007487;28;20038;-62
2022/03/09 07:05:27;;;;;;;7.90;3.22;;;8.60;66.20;;;;;;4997754;28;20038;-63
2022/03/09 07:07:53;;;;;;;9.88;3.90;;;8.70;66.00;;;;;;4990270;28;20042;-63
2022/03/09 07:10:19;;;;;;;5.05;3.10;;;8.70;65.80;;;;;;4998634;28;20034;-63
2022/03/09 07:12:46;;;;;;;10.60;3.65;;;8.80;65.80;;;;;;4995741;28;20572;-62
2022/03/09 07:15:12;;;;;;;13.95;3.78;;;8.80;65.70;;;;;;4994364;28;20030;-63
2022/03/09 07:17:39;;;;;;;9.10;3.97;;;8.80;65.80;;;;;;4998098;28;20141;-62
2022/03/09 07:20:06;;;;;;;9.35;4.40;;;8.80;65.70;;;;;;4990990;28;20038;-62
2022/03/09 07:22:32;;;;;;;10.15;4.22;;;8.80;65.70;;;;;;5003721;28;20026;-62
2022/03/09 07:24:57;;;;;;;8.60;3.88;;;8.80;65.70;;;;;;4999715;28;20066;-62
2022/03/09 07:27:23;;;;;;;7.80;3.50;;;8.90;65.70;;;;;;4977119;28;20026;-62
2022/03/09 07:29:49;;;;;;;8.32;4.28;;;8.90;65.20;;;;;;5003456;28;20034;-62
2022/03/09 07:32:15;;;;;;;5.95;3.13;;;9.00;65.00;;;;;;4998814;28;20022;-62
2022/03/09 07:34:42;;;;;;;11.70;5.25;;;9.10;65.00;;;;;;4999660;28;20498;-62
2022/03/09 07:37:08;;;;;;;8.15;4.43;;;9.10;65.30;;;;;;4998317;28;20038;-62
2022/03/09 07:39:35;;;;;;;12.20;4.05;;;9.20;65.00;;;;;;5004609;28;20025;-62
2022/03/09 07:42:01;;;;;;;20.58;6.35;;;9.20;65.00;;;;;;5006692;28;20030;-62
2022/03/09 07:44:27;;;;;;;11.13;4.88;;;9.30;64.90;;;;;;5002003;28;20120;-61
2022/03/09 07:46:53;;;;;;;22.35;5.53;;;9.30;64.80;;;;;;5004095;28;20546;-64
2022/03/09 07:49:19;;;;;;;16.00;5.85;;;9.30;64.70;;;;;;4991325;28;20029;-62
2022/03/09 07:51:45;;;;;;;9.65;5.22;;;9.40;64.80;;;;;;4998351;28;20058;-62
2022/03/09 07:54:11;;;;;;;17.25;4.47;;;9.40;64.60;;;;;;4998041;28;20057;-61
2022/03/09 07:56:38;;;;;;;15.25;5.00;;;9.40;64.80;;;;;;5007463;28;20077;-63
2022/03/09 07:59:05;;;;;;;11.35;4.90;;;9.40;65.00;;;;;;5005575;28;20112;-61
2022/03/09 08:01:31;;;;;;;8.07;3.67;;;9.40;65.00;;;;;;5009257;28;20022;-61
2022/03/09 08:03:57;;;;;;;7.03;3.25;;;9.40;64.90;;;;;;4982174;28;20038;-61
2022/03/09 08:06:23;;;;;;;9.55;3.95;;;9.40;64.70;;;;;;5032845;28;20433;-61
2022/03/09 08:08:48;;;;;;;14.57;4.40;;;9.40;64.60;;;;;;5015082;28;20028;-61
2022/03/09 08:11:14;;;;;;;9.52;4.32;;;9.50;64.70;;;;;;5014806;28;20040;-62
2022/03/09 08:13:40;;;;;;;17.27;4.65;;;9.50;64.90;;;;;;5033158;28;20482;-62
2022/03/09 08:16:06;;;;;;;21.27;5.90;;;9.50;64.40;;;;;;5032669;28;20025;-62
2022/03/09 08:18:32;;;;;;;6.78;3.85;;;9.50;64.40;;;;;;5029007;28;20075;-62
2022/03/09 08:20:58;;;;;;;11.25;4.75;;;9.50;64.50;;;;;;5017750;28;20029;-62
2022/03/09 08:23:24;;;;;;;13.57;4.55;;;9.50;64.30;;;;;;5011027;28;20605;-61
2022/03/09 08:25:51;;;;;;;10.05;4.20;;;9.50;64.30;;;;;;5015660;28;20030;-62
2022/03/09 08:28:17;;;;;;;8.18;4.45;;;9.60;64.20;;;;;;5023654;28;20029;-62
2022/03/09 08:30:43;;;;;;;13.45;5.22;;;9.60;64.20;;;;;;5032309;28;20029;-62
2022/03/09 08:33:09;;;;;;;9.23;5.00;;;9.60;64.60;;;;;;5030800;28;20475;-62
2022/03/09 08:35:35;;;;;;;6.65;3.40;;;9.60;64.90;;;;;;5032118;28;20036;-62
2022/03/09 08:38:00;;;;;;;13.35;4.60;;;9.60;65.10;;;;;;5032006;28;20030;-62
2022/03/09 08:40:26;;;;;;;10.82;4.78;;;9.60;65.30;;;;;;5032326;28;20494;-62
2022/03/09 08:42:52;;;;;;;6.63;3.30;;;9.70;65.70;;;;;;5031623;28;20082;-62
2022/03/09 08:45:18;;;;;;;13.93;2.78;;;9.70;66.00;;;;;;5032321;28;20057;-62
2022/03/09 08:47:43;;;;;;;11.48;4.55;;;9.70;66.70;;;;;;5031719;28;20021;-62
2022/03/09 08:50:09;;;;;;;9.23;3.95;;;9.70;66.70;;;;;;5032205;28;20041;-62
2022/03/09 08:52:35;;;;;;;12.35;6.03;;;9.70;67.10;;;;;;5027393;28;20026;-62
2022/03/09 08:55:01;;;;;;;10.30;4.65;;;9.70;67.80;;;;;;5012458;28;20364;-62
2022/03/09 08:57:26;;;;;;;15.00;4.40;;;9.70;67.50;;;;;;5011246;28;20030;-62
2022/03/09 08:59:52;;;;;;;18.73;6.85;;;9.70;67.80;;;;;;4994928;28;20029;-61
2022/03/09 09:02:18;;;;;;;11.32;5.57;;;9.70;68.70;;;;;;5011140;28;20033;-61
2022/03/09 09:04:43;;;;;;;15.50;6.55;;;9.70;68.20;;;;;;5011850;28;20026;-61
2022/03/09 09:07:09;;;;;;;12.38;5.70;;;9.70;67.70;;;;;;5021267;28;20498;-61
2022/03/09 09:09:34;;;;;;;11.27;4.80;;;9.70;67.80;;;;;;5017875;28;20034;-61
2022/03/09 09:12:01;;;;;;;5.47;2.72;;;9.70;67.50;;;;;;5011897;28;20104;-61
2022/03/09 09:14:28;;;;;;;8.85;3.72;;;9.70;67.50;;;;;;5010571;28;20022;-61
2022/03/09 09:16:54;;;;;;;8.63;4.32;;;9.70;68.70;;;;;;5012465;28;20034;-61
2022/03/09 09:19:20;;;;;;;7.43;3.65;;;9.70;67.80;;;;;;5011931;28;20049;-61
2022/03/09 09:21:46;;;;;;;20.65;7.38;;;9.80;67.90;;;;;;5011029;28;20474;-61
2022/03/09 09:24:12;;;;;;;25.27;8.55;;;9.80;68.00;;;;;;5011463;28;20030;-61
2022/03/09 09:26:38;;;;;;;28.85;8.48;;;9.80;70.00;;;;;;5011667;28;20376;-61
2022/03/09 09:29:04;;;;;;;18.65;4.97;;;9.80;68.30;;;;;;5010410;28;20434;-60
2022/03/09 09:31:29;;;;;;;14.75;6.60;;;9.80;69.10;;;;;;5010810;28;20064;-61
2022/03/09 09:33:55;;;;;;;18.55;8.80;;;9.80;70.20;;;;;;5012131;28;20520;-61
2022/03/09 09:36:21;;;;;;;15.50;8.10;;;9.90;69.60;;;;;;5011913;28;20475;-61
2022/03/09 09:38:46;;;;;;;20.05;7.88;;;9.90;69.10;;;;;;5031169;28;20398;-61
2022/03/09 09:41:15;;;;;;;19.02;7.97;;;9.90;70.30;;;;;;5031575;28;20068;-60
2022/03/09 09:43:42;;;;;;;18.42;6.20;;;9.90;70.20;;;;;;5030878;28;20069;-61
2022/03/09 09:46:07;;;;;;;9.18;4.63;;;9.90;71.00;;;;;;5024111;28;20375;-61
2022/03/09 09:48:33;;;;;;;7.13;3.30;;;10.00;70.70;;;;;;5010515;28;20487;-61
2022/03/09 09:51:00;;;;;;;18.42;8.77;;;10.00;71.30;;;;;;5010940;28;20042;-61
2022/03/09 09:53:30;;;;;;;12.40;6.75;;;10.00;70.50;;;;;;5027853;28;20498;-61
2022/03/09 09:55:58;;;;;;;19.98;9.43;;;10.00;70.20;;;;;;5014110;28;20029;-61
2022/03/09 09:58:24;;;;;;;2.42;1.70;;;10.00;69.30;;;;;;5011207;28;20424;-61
2022/03/09 10:00:49;;;;;;;16.70;6.35;;;10.00;69.60;;;;;;5010945;28;20374;-61
2022/03/09 10:03:15;;;;;;;11.20;4.85;;;10.00;70.30;;;;;;5008902;28;20037;-61
2022/03/09 10:05:41;;;;;;;14.02;4.90;;;10.10;69.30;;;;;;5011215;28;20038;-61
2022/03/09 10:08:07;;;;;;;10.65;5.03;;;10.10;68.70;;;;;;5024614;28;20079;-61
2022/03/09 10:10:35;;;;;;;14.95;5.60;;;10.10;68.10;;;;;;5030122;28;20040;-61
2022/03/09 10:13:13;;;;;;;9.70;4.97;;;10.20;69.90;;;;;;5030288;28;20033;-61
2022/03/09 10:15:39;;;;;;;19.95;7.43;;;10.20;69.20;;;;;;5030961;28;20029;-61
2022/03/09 10:18:13;;;;;;;21.45;7.38;;;10.30;69.70;;;;;;5030347;28;20037;-61
2022/03/09 10:20:39;;;;;;;21.85;8.82;;;10.20;70.80;;;;;;5030684;28;20036;-61
2022/03/09 10:23:04;;;;;;;23.58;10.15;;;10.30;71.60;;;;;;5015460;28;20038;-61
2022/03/09 10:25:30;;;;;;;23.17;8.90;;;10.30;70.60;;;;;;5010954;28;20084;-61
2022/03/09 10:27:56;;;;;;;24.65;10.15;;;10.30;71.60;;;;;;5010818;28;20403;-61
2022/03/09 10:30:29;;;;;;;4.60;2.15;;;10.30;71.50;;;;;;5010739;28;20041;-61
2022/03/09 10:33:03;;;;;;;24.33;9.68;;;10.30;72.20;;;;;;5010326;28;20025;-61
2022/03/09 10:35:31;;;;;;;14.07;6.30;;;10.40;70.30;;;;;;5010364;28;20029;-61
2022/03/09 10:37:59;;;;;;;26.45;9.75;;;10.40;70.70;;;;;;5019053;28;20422;-61
2022/03/09 10:40:26;;;;;;;30.60;12.63;;;10.40;68.00;;;;;;5030003;28;20030;-61
2022/03/09 10:43:08;;;;;;;24.17;10.07;;;10.50;71.10;;;;;;5028374;28;20433;-61
2022/03/09 10:45:33;;;;;;;22.27;8.73;;;10.50;71.10;;;;;;5030243;28;20072;-61
2022/03/09 10:48:00;;;;;;;24.73;8.63;;;10.50;71.10;;;;;;5029644;28;20049;-61
2022/03/09 10:50:28;;;;;;;21.38;9.38;;;10.60;71.60;;;;;;5012170;28;20485;-61
2022/03/09 10:52:59;;;;;;;21.10;8.27;;;10.60;71.80;;;;;;5007630;28;20057;-61
2022/03/09 10:55:32;;;;;;;20.50;8.07;;;10.60;71.90;;;;;;5009831;28;20033;-61
2022/03/09 10:58:07;;;;;;;28.70;10.88;;;10.70;69.90;;;;;;5010279;28;20017;-61
2022/03/09 11:00:48;;;;;;;24.83;9.60;;;10.70;71.10;;;;;;5009821;28;20119;-61
2022/03/09 11:03:25;;;;;;;28.88;10.90;;;10.70;71.70;;;;;;5009901;28;20032;-61
2022/03/09 11:06:02;;;;;;;19.77;7.28;;;10.70;71.60;;;;;;5028232;28;20034;-61
2022/03/09 11:08:36;;;;;;;22.35;9.20;;;10.80;69.00;;;;;;5029151;28;20118;-61
2022/03/09 11:11:02;;;;;;;10.10;4.10;;;10.80;71.60;;;;;;5028914;28;20033;-61
2022/03/09 11:13:30;;;;;;;18.30;7.00;;;10.80;71.80;;;;;;5027975;28;20068;-61
2022/03/09 11:15:56;;;;;;;16.08;7.13;;;10.90;71.20;;;;;;5028853;28;20341;-61
2022/03/09 11:18:25;;;;;;;23.25;9.88;;;10.90;72.30;;;;;;5022263;28;20021;-61
2022/03/09 11:20:57;;;;;;;24.17;9.75;;;11.00;70.80;;;;;;5029022;28;20038;-61
2022/03/09 11:23:24;;;;;;;24.58;9.38;;;11.00;71.30;;;;;;5028355;28;20403;-62
2022/03/09 11:26:00;;;;;;;30.38;12.35;;;11.10;70.50;;;;;;5029257;28;20086;-61
2022/03/09 11:28:32;;;;;;;35.40;12.60;;;11.10;70.80;;;;;;5029486;28;20100;-63
2022/03/09 11:31:00;;;;;;;31.38;11.65;;;11.10;71.00;;;;;;5029050;28;20593;-61
2022/03/09 11:33:56;;;;;;;32.55;13.10;;;11.10;71.10;;;;;;5028843;28;20115;-61
2022/03/09 11:36:21;;;;;;;29.52;11.40;;;11.10;71.10;;;;;;5016698;28;20052;-61
2022/03/09 11:38:52;;;;;;;23.27;7.22;;;11.10;70.90;;;;;;5041770;28;20025;-61
2022/03/09 11:41:24;;;;;;;25.98;9.45;;;11.10;70.90;;;;;;5048885;28;20040;-63
2022/03/09 11:44:14;;;;;;;25.15;9.80;;;11.20;70.80;;;;;;5049126;28;20024;-61
2022/03/09 11:46:58;;;;;;;36.00;14.55;;;11.30;71.00;;;;;;5039048;28;20426;-61
2022/03/09 11:49:31;;;;;;;31.60;11.75;;;11.30;70.90;;;;;;5012371;28;20049;-61
2022/03/09 11:52:31;;;;;;;17.42;6.93;;;11.30;70.60;;;;;;5009451;28;20076;-61
2022/03/09 11:55:02;;;;;;;27.27;10.65;;;11.40;70.60;;;;;;4998553;28;20100;-61
2022/03/09 11:58:09;;;;;;;22.23;8.07;;;11.40;70.60;;;;;;5009087;28;20032;-60
2022/03/09 12:00:37;;;;;;;4.03;2.03;;;11.50;70.50;;;;;;5010308;28;20080;-61
2022/03/09 12:03:03;;;;;;;30.40;12.30;;;11.50;70.30;;;;;;5008955;28;20286;-61
2022/03/09 12:05:29;;;;;;;23.88;10.75;;;11.50;70.30;;;;;;5009298;28;20105;-61
2022/03/09 12:10:59;;;;;;;27.70;12.57;;;11.60;70.10;;;;;;5068735;23;20071;-60
2022/03/09 12:13:31;;;;;;;38.35;13.07;;;11.60;70.40;;;;;;5048234;28;20028;-61
2022/03/09 12:16:00;;;;;;;20.70;7.88;;;11.60;70.60;;;;;;5048380;28;20537;-61
2022/03/09 12:18:41;;;;;;;21.80;6.68;;;11.60;70.70;;;;;;5048580;28;20083;-61
2022/03/09 12:21:09;;;;;;;22.35;8.23;;;11.60;70.80;;;;;;5047718;28;20040;-61
2022/03/09 12:23:35;;;;;;;31.58;11.57;;;11.50;70.60;;;;;;5048548;28;20021;-60
2022/03/09 12:26:01;;;;;;;37.08;11.85;;;11.50;70.70;;;;;;5048373;28;20104;-61
2022/03/09 12:28:34;;;;;;;25.60;9.35;;;11.50;70.70;;;;;;5048490;28;20056;-61
2022/03/09 12:31:02;;;;;;;16.80;6.43;;;11.50;70.80;;;;;;5030620;28;20044;-61
2022/03/09 12:33:33;;;;;;;21.92;6.35;;;11.50;71.10;;;;;;5049931;28;20025;-63
2022/03/09 12:36:12;;;;;;;31.30;10.90;;;11.50;70.90;;;;;;5052560;28;20536;-60
2022/03/09 12:38:47;;;;;;;25.08;9.95;;;11.50;71.50;;;;;;5052795;28;20029;-60
2022/03/09 12:41:37;;;;;;;23.38;10.57;;;11.50;71.50;;;;;;5068629;28;20469;-60
2022/03/09 12:44:15;;;;;;;31.58;11.55;;;11.60;71.90;;;;;;5072476;28;20071;-60
2022/03/09 12:46:43;;;;;;;26.60;10.38;;;11.60;71.80;;;;;;5072264;28;20062;-61
2022/03/09 12:49:43;;;;;;;21.77;9.65;;;11.50;71.70;;;;;;5064387;28;20432;-61
2022/03/09 12:52:17;;;;;;;21.48;8.63;;;11.50;71.50;;;;;;4970378;28;20125;-60
2022/03/09 12:54:51;;;;;;;22.25;8.50;;;11.50;71.80;;;;;;4969232;28;20173;-60
2022/03/09 12:57:16;;;;;;;29.98;11.05;;;11.50;71.70;;;;;;4969718;28;20134;-61
2022/03/09 13:00:04;;;;;;;28.75;9.25;;;11.50;71.50;;;;;;4970155;28;20094;-61
2022/03/09 13:02:44;;;;;;;34.05;11.02;;;11.50;71.50;;;;;;4970315;28;20034;-61
2022/03/09 13:05:13;;;;;;;32.33;10.65;;;11.50;71.60;;;;;;4969840;28;20019;-61
2022/03/09 13:07:38;;;;;;;30.88;12.30;;;11.50;71.60;;;;;;4970584;28;20523;-61
2022/03/09 13:10:12;;;;;;;30.35;11.00;;;11.50;71.50;;;;;;4969162;28;20046;-61
2022/03/09 13:12:53;;;;;;;33.88;12.35;;;11.50;71.70;;;;;;4969894;28;20031;-60
2022/03/09 13:15:19;;;;;;;24.73;10.57;;;11.40;71.90;;;;;;4984829;28;20117;-60
2022/03/09 13:17:49;;;;;;;20.70;9.52;;;11.40;72.20;;;;;;4970548;28;20118;-61
2022/03/09 13:20:16;;;;;;;13.20;4.47;;;11.40;72.20;;;;;;4970375;28;20027;-61
2022/03/09 13:22:46;;;;;;;30.77;10.70;;;11.40;72.50;;;;;;4969303;28;20392;-61
2022/03/09 13:25:13;;;;;;;19.65;7.47;;;11.50;72.50;;;;;;4968724;28;20031;-61
2022/03/09 13:27:39;;;;;;;18.98;7.95;;;11.50;71.70;;;;;;5008248;28;20029;-60
2022/03/09 13:30:16;;;;;;;32.85;11.73;;;11.50;71.50;;;;;;5047944;28;20040;-61
2022/03/09 13:32:43;;;;;;;10.38;4.80;;;11.50;72.40;;;;;;5031928;28;20033;-60